sensor_id;sensor_type;location;lat;lon;timestamp;P1;durP1;ratioP1;P2;durP2;ratioP2
28613;SDS011;15806;53.548;9.964;2023-07-31T00:00:14;6.35;;;1.30;;
28613;SDS011;15806;53.548;9.964;2023-07-31T00:01:54;4.13;;;1.20;;
28613;SDS011;15806;53.548;9.964;2023-07-31T00:03:35;14.30;;;1.87;;
28613;SDS011;15806;53.548;9.964;2023-07-31T00:05:15;7.17;;;1.40;;
28613;SDS011;15806;53.548;9.964;2023-07-31T00:06:56;5.03;;;1.37;;
28613;SDS011;15806;53.548;9.964;2023-07-31T00:08:36;3.30;;;0.90;;
28613;SDS011;15806;53.548;9.964;2023-07-31T00:10:17;5.07;;;0.87;;
28613;SDS011;15806;53.548;9.964;2023-07-31T00:11:57;4.03;;;1.30;;
28613;SDS011;15806;53.548;9.964;2023-07-31T00:13:38;8.40;;;1.07;;
28613;SDS011;15806;53.548;9.964;2023-07-31T00:15:18;4.03;;;0.77;;
28613;SDS011;15806;53.548;9.964;2023-07-31T00:16:59;5.10;;;1.10;;
28613;SDS011;15806;53.548;9.964;2023-07-31T00:18:39;6.40;;;1.20;;
28613;SDS011;15806;53.548;9.964;2023-07-31T00:20:20;5.07;;;0.97;;
28613;SDS011;15806;53.548;9.964;2023-07-31T00:22:00;9.67;;;2.40;;
28613;SDS011;15806;53.548;9.964;2023-07-31T00:23:41;7.53;;;1.40;;
28613;SDS011;15806;53.548;9.964;2023-07-31T00:25:21;5.10;;;1.17;;
28613;SDS011;15806;53.548;9.964;2023-07-31T00:27:02;2.80;;;0.73;;
28613;SDS011;15806;53.548;9.964;2023-07-31T00:28:43;4.83;;;0.97;;
28613;SDS011;15806;53.548;9.964;2023-07-31T00:30:23;6.83;;;0.97;;
28613;SDS011;15806;53.548;9.964;2023-07-31T00:32:04;2.40;;;0.80;;
28613;SDS011;15806;53.548;9.964;2023-07-31T00:33:45;6.10;;;1.02;;
28613;SDS011;15806;53.548;9.964;2023-07-31T00:35:25;7.73;;;0.80;;
28613;SDS011;15806;53.548;9.964;2023-07-31T00:37:06;5.90;;;1.30;;
28613;SDS011;15806;53.548;9.964;2023-07-31T00:38:46;7.97;;;1.77;;
28613;SDS011;15806;53.548;9.964;2023-07-31T00:40:27;4.13;;;1.10;;
28613;SDS011;15806;53.548;9.964;2023-07-31T00:42:07;2.87;;;0.80;;
28613;SDS011;15806;53.548;9.964;2023-07-31T00:43:48;3.73;;;1.17;;
28613;SDS011;15806;53.548;9.964;2023-07-31T00:45:28;5.43;;;1.00;;
28613;SDS011;15806;53.548;9.964;2023-07-31T00:47:09;5.25;;;0.90;;
28613;SDS011;15806;53.548;9.964;2023-07-31T00:48:50;6.27;;;1.17;;
28613;SDS011;15806;53.548;9.964;2023-07-31T00:50:30;4.20;;;0.63;;
28613;SDS011;15806;53.548;9.964;2023-07-31T00:52:11;1.80;;;0.73;;
28613;SDS011;15806;53.548;9.964;2023-07-31T00:53:51;8.20;;;1.20;;
28613;SDS011;15806;53.548;9.964;2023-07-31T00:55:33;7.10;;;1.42;;
28613;SDS011;15806;53.548;9.964;2023-07-31T00:57:13;9.13;;;1.20;;
28613;SDS011;15806;53.548;9.964;2023-07-31T00:58:55;2.55;;;0.85;;
28613;SDS011;15806;53.548;9.964;2023-07-31T01:00:35;6.47;;;1.38;;
28613;SDS011;15806;53.548;9.964;2023-07-31T01:02:16;8.10;;;1.20;;
28613;SDS011;15806;53.548;9.964;2023-07-31T01:03:56;6.70;;;0.70;;
28613;SDS011;15806;53.548;9.964;2023-07-31T01:05:49;10.13;;;1.10;;
28613;SDS011;15806;53.548;9.964;2023-07-31T01:08:05;8.00;;;1.27;;
28613;SDS011;15806;53.548;9.964;2023-07-31T01:09:59;7.35;;;1.15;;
28613;SDS011;15806;53.548;9.964;2023-07-31T01:11:54;11.45;;;1.73;;
28613;SDS011;15806;53.548;9.964;2023-07-31T01:13:37;9.07;;;0.95;;
28613;SDS011;15806;53.548;9.964;2023-07-31T01:15:18;5.73;;;1.43;;
28613;SDS011;15806;53.548;9.964;2023-07-31T01:16:59;13.57;;;1.53;;
28613;SDS011;15806;53.548;9.964;2023-07-31T01:18:40;3.20;;;0.95;;
28613;SDS011;15806;53.548;9.964;2023-07-31T01:20:22;5.33;;;1.20;;
28613;SDS011;15806;53.548;9.964;2023-07-31T01:22:12;7.68;;;1.48;;
28613;SDS011;15806;53.548;9.964;2023-07-31T01:24:16;5.95;;;1.73;;
28613;SDS011;15806;53.548;9.964;2023-07-31T01:31:36;10.82;;;2.17;;
28613;SDS011;15806;53.548;9.964;2023-07-31T01:33:18;4.38;;;1.23;;
28613;SDS011;15806;53.548;9.964;2023-07-31T01:34:59;4.82;;;1.38;;
28613;SDS011;15806;53.548;9.964;2023-07-31T01:36:40;3.60;;;1.20;;
28613;SDS011;15806;53.548;9.964;2023-07-31T01:38:21;5.20;;;1.40;;
28613;SDS011;15806;53.548;9.964;2023-07-31T01:40:01;3.75;;;1.92;;
28613;SDS011;15806;53.548;9.964;2023-07-31T01:43:23;6.78;;;1.38;;
28613;SDS011;15806;53.548;9.964;2023-07-31T01:45:04;6.10;;;1.03;;
28613;SDS011;15806;53.548;9.964;2023-07-31T01:46:45;3.03;;;1.20;;
28613;SDS011;15806;53.548;9.964;2023-07-31T01:48:25;6.20;;;1.97;;
28613;SDS011;15806;53.548;9.964;2023-07-31T01:50:06;8.20;;;1.30;;
28613;SDS011;15806;53.548;9.964;2023-07-31T01:51:47;4.77;;;1.40;;
28613;SDS011;15806;53.548;9.964;2023-07-31T01:53:27;13.57;;;1.93;;
28613;SDS011;15806;53.548;9.964;2023-07-31T01:55:08;5.63;;;1.10;;
28613;SDS011;15806;53.548;9.964;2023-07-31T01:56:48;11.87;;;1.57;;
28613;SDS011;15806;53.548;9.964;2023-07-31T01:58:29;3.43;;;1.30;;
28613;SDS011;15806;53.548;9.964;2023-07-31T02:00:10;4.60;;;1.40;;
28613;SDS011;15806;53.548;9.964;2023-07-31T02:01:50;3.65;;;1.13;;
28613;SDS011;15806;53.548;9.964;2023-07-31T02:03:31;2.20;;;1.10;;
28613;SDS011;15806;53.548;9.964;2023-07-31T02:05:11;6.50;;;1.40;;
28613;SDS011;15806;53.548;9.964;2023-07-31T02:06:52;3.73;;;1.30;;
28613;SDS011;15806;53.548;9.964;2023-07-31T02:08:33;3.28;;;1.02;;
28613;SDS011;15806;53.548;9.964;2023-07-31T02:10:14;5.80;;;1.53;;
28613;SDS011;15806;53.548;9.964;2023-07-31T02:11:54;7.50;;;1.47;;
28613;SDS011;15806;53.548;9.964;2023-07-31T02:13:34;3.57;;;1.30;;
28613;SDS011;15806;53.548;9.964;2023-07-31T02:15:15;8.00;;;1.30;;
28613;SDS011;15806;53.548;9.964;2023-07-31T02:16:56;6.87;;;1.40;;
28613;SDS011;15806;53.548;9.964;2023-07-31T02:18:36;6.27;;;1.50;;
28613;SDS011;15806;53.548;9.964;2023-07-31T02:20:17;6.03;;;1.80;;
28613;SDS011;15806;53.548;9.964;2023-07-31T02:21:57;4.90;;;2.27;;
28613;SDS011;15806;53.548;9.964;2023-07-31T02:23:38;3.30;;;1.30;;
28613;SDS011;15806;53.548;9.964;2023-07-31T02:25:18;5.83;;;1.70;;
28613;SDS011;15806;53.548;9.964;2023-07-31T02:26:59;6.67;;;1.47;;
28613;SDS011;15806;53.548;9.964;2023-07-31T02:28:39;14.17;;;2.13;;
28613;SDS011;15806;53.548;9.964;2023-07-31T02:30:20;5.00;;;1.37;;
28613;SDS011;15806;53.548;9.964;2023-07-31T02:32:00;2.43;;;1.03;;
28613;SDS011;15806;53.548;9.964;2023-07-31T02:33:41;6.63;;;1.30;;
28613;SDS011;15806;53.548;9.964;2023-07-31T02:35:21;2.53;;;1.50;;
28613;SDS011;15806;53.548;9.964;2023-07-31T02:37:02;5.43;;;1.30;;
28613;SDS011;15806;53.548;9.964;2023-07-31T02:38:42;6.90;;;1.60;;
28613;SDS011;15806;53.548;9.964;2023-07-31T02:40:23;8.30;;;1.67;;
28613;SDS011;15806;53.548;9.964;2023-07-31T02:42:03;4.17;;;1.53;;
28613;SDS011;15806;53.548;9.964;2023-07-31T02:43:44;8.90;;;1.67;;
28613;SDS011;15806;53.548;9.964;2023-07-31T02:45:26;4.13;;;1.35;;
28613;SDS011;15806;53.548;9.964;2023-07-31T02:47:06;3.27;;;1.20;;
28613;SDS011;15806;53.548;9.964;2023-07-31T02:48:47;7.27;;;1.40;;
28613;SDS011;15806;53.548;9.964;2023-07-31T02:50:27;6.43;;;1.80;;
28613;SDS011;15806;53.548;9.964;2023-07-31T02:52:08;3.60;;;1.20;;
28613;SDS011;15806;53.548;9.964;2023-07-31T02:53:48;2.97;;;1.23;;
28613;SDS011;15806;53.548;9.964;2023-07-31T02:55:29;8.17;;;1.73;;
28613;SDS011;15806;53.548;9.964;2023-07-31T02:57:09;7.07;;;1.50;;
28613;SDS011;15806;53.548;9.964;2023-07-31T02:58:50;5.90;;;1.50;;
28613;SDS011;15806;53.548;9.964;2023-07-31T03:00:30;6.37;;;1.40;;
28613;SDS011;15806;53.548;9.964;2023-07-31T03:02:11;5.03;;;1.20;;
28613;SDS011;15806;53.548;9.964;2023-07-31T03:03:51;7.33;;;1.30;;
28613;SDS011;15806;53.548;9.964;2023-07-31T03:05:32;5.50;;;1.57;;
28613;SDS011;15806;53.548;9.964;2023-07-31T03:07:12;4.30;;;1.60;;
28613;SDS011;15806;53.548;9.964;2023-07-31T03:08:53;4.10;;;1.50;;
28613;SDS011;15806;53.548;9.964;2023-07-31T03:10:33;3.00;;;1.30;;
28613;SDS011;15806;53.548;9.964;2023-07-31T03:12:15;7.95;;;1.60;;
28613;SDS011;15806;53.548;9.964;2023-07-31T03:13:56;4.37;;;1.67;;
28613;SDS011;15806;53.548;9.964;2023-07-31T03:15:36;4.60;;;1.27;;
28613;SDS011;15806;53.548;9.964;2023-07-31T03:17:17;4.87;;;1.27;;
28613;SDS011;15806;53.548;9.964;2023-07-31T03:18:57;3.40;;;1.23;;
28613;SDS011;15806;53.548;9.964;2023-07-31T03:20:41;7.13;;;1.83;;
28613;SDS011;15806;53.548;9.964;2023-07-31T03:22:22;4.25;;;1.70;;
28613;SDS011;15806;53.548;9.964;2023-07-31T03:24:03;4.47;;;1.50;;
28613;SDS011;15806;53.548;9.964;2023-07-31T03:25:57;8.70;;;2.33;;
28613;SDS011;15806;53.548;9.964;2023-07-31T03:27:38;4.15;;;1.50;;
28613;SDS011;15806;53.548;9.964;2023-07-31T03:29:19;6.50;;;1.90;;
28613;SDS011;15806;53.548;9.964;2023-07-31T03:30:59;5.37;;;1.70;;
28613;SDS011;15806;53.548;9.964;2023-07-31T03:32:40;3.67;;;1.47;;
28613;SDS011;15806;53.548;9.964;2023-07-31T03:34:20;3.97;;;1.27;;
28613;SDS011;15806;53.548;9.964;2023-07-31T03:36:01;2.47;;;1.40;;
28613;SDS011;15806;53.548;9.964;2023-07-31T03:37:42;6.80;;;1.20;;
28613;SDS011;15806;53.548;9.964;2023-07-31T03:39:22;8.20;;;2.60;;
28613;SDS011;15806;53.548;9.964;2023-07-31T03:41:03;5.77;;;1.10;;
28613;SDS011;15806;53.548;9.964;2023-07-31T03:42:43;7.50;;;1.80;;
28613;SDS011;15806;53.548;9.964;2023-07-31T03:44:24;7.20;;;2.10;;
28613;SDS011;15806;53.548;9.964;2023-07-31T03:46:04;4.30;;;1.33;;
28613;SDS011;15806;53.548;9.964;2023-07-31T03:47:45;5.67;;;1.57;;
28613;SDS011;15806;53.548;9.964;2023-07-31T03:49:26;6.03;;;1.63;;
28613;SDS011;15806;53.548;9.964;2023-07-31T03:51:06;2.30;;;1.27;;
28613;SDS011;15806;53.548;9.964;2023-07-31T03:52:47;5.53;;;1.80;;
28613;SDS011;15806;53.548;9.964;2023-07-31T03:54:27;2.93;;;1.37;;
28613;SDS011;15806;53.548;9.964;2023-07-31T03:56:07;4.50;;;1.57;;
28613;SDS011;15806;53.548;9.964;2023-07-31T03:57:48;8.90;;;2.03;;
28613;SDS011;15806;53.548;9.964;2023-07-31T03:59:29;6.73;;;1.67;;
28613;SDS011;15806;53.548;9.964;2023-07-31T04:01:09;2.23;;;1.30;;
28613;SDS011;15806;53.548;9.964;2023-07-31T04:02:50;2.57;;;1.20;;
28613;SDS011;15806;53.548;9.964;2023-07-31T04:04:30;3.60;;;1.60;;
28613;SDS011;15806;53.548;9.964;2023-07-31T04:06:11;3.17;;;1.63;;
28613;SDS011;15806;53.548;9.964;2023-07-31T04:07:51;6.57;;;1.50;;
28613;SDS011;15806;53.548;9.964;2023-07-31T04:09:31;1.93;;;1.20;;
28613;SDS011;15806;53.548;9.964;2023-07-31T04:11:12;4.20;;;1.40;;
28613;SDS011;15806;53.548;9.964;2023-07-31T04:12:53;4.03;;;1.37;;
28613;SDS011;15806;53.548;9.964;2023-07-31T04:14:33;2.70;;;1.27;;
28613;SDS011;15806;53.548;9.964;2023-07-31T04:16:14;2.97;;;1.30;;
28613;SDS011;15806;53.548;9.964;2023-07-31T04:17:54;7.97;;;1.50;;
28613;SDS011;15806;53.548;9.964;2023-07-31T04:19:35;3.83;;;1.50;;
28613;SDS011;15806;53.548;9.964;2023-07-31T04:21:15;3.33;;;1.80;;
28613;SDS011;15806;53.548;9.964;2023-07-31T04:22:56;3.17;;;1.30;;
28613;SDS011;15806;53.548;9.964;2023-07-31T04:24:36;2.57;;;1.40;;
28613;SDS011;15806;53.548;9.964;2023-07-31T04:26:17;2.73;;;1.47;;
28613;SDS011;15806;53.548;9.964;2023-07-31T04:27:57;2.80;;;1.43;;
28613;SDS011;15806;53.548;9.964;2023-07-31T04:29:38;4.33;;;1.27;;
28613;SDS011;15806;53.548;9.964;2023-07-31T04:31:18;3.40;;;1.17;;
28613;SDS011;15806;53.548;9.964;2023-07-31T04:32:59;2.63;;;1.33;;
28613;SDS011;15806;53.548;9.964;2023-07-31T04:34:39;2.37;;;1.43;;
28613;SDS011;15806;53.548;9.964;2023-07-31T04:36:20;3.47;;;1.53;;
28613;SDS011;15806;53.548;9.964;2023-07-31T04:38:00;4.33;;;1.43;;
28613;SDS011;15806;53.548;9.964;2023-07-31T04:39:41;5.97;;;1.37;;
28613;SDS011;15806;53.548;9.964;2023-07-31T04:41:22;3.27;;;1.40;;
28613;SDS011;15806;53.548;9.964;2023-07-31T04:43:02;7.20;;;2.00;;
28613;SDS011;15806;53.548;9.964;2023-07-31T04:44:42;5.37;;;2.23;;
28613;SDS011;15806;53.548;9.964;2023-07-31T04:46:23;2.30;;;1.50;;
28613;SDS011;15806;53.548;9.964;2023-07-31T04:48:04;3.67;;;1.40;;
28613;SDS011;15806;53.548;9.964;2023-07-31T04:49:44;2.23;;;1.60;;
28613;SDS011;15806;53.548;9.964;2023-07-31T04:51:25;2.20;;;1.00;;
28613;SDS011;15806;53.548;9.964;2023-07-31T04:53:05;3.37;;;1.47;;
28613;SDS011;15806;53.548;9.964;2023-07-31T04:54:46;4.60;;;1.70;;
28613;SDS011;15806;53.548;9.964;2023-07-31T04:56:26;2.80;;;1.63;;
28613;SDS011;15806;53.548;9.964;2023-07-31T04:58:07;2.97;;;1.27;;
28613;SDS011;15806;53.548;9.964;2023-07-31T04:59:48;5.30;;;1.53;;
28613;SDS011;15806;53.548;9.964;2023-07-31T05:01:28;4.17;;;1.10;;
28613;SDS011;15806;53.548;9.964;2023-07-31T05:03:08;3.73;;;1.87;;
28613;SDS011;15806;53.548;9.964;2023-07-31T05:04:49;2.53;;;1.60;;
28613;SDS011;15806;53.548;9.964;2023-07-31T05:06:29;2.23;;;1.33;;
28613;SDS011;15806;53.548;9.964;2023-07-31T05:08:10;4.60;;;1.97;;
28613;SDS011;15806;53.548;9.964;2023-07-31T05:09:50;3.70;;;1.57;;
28613;SDS011;15806;53.548;9.964;2023-07-31T05:11:31;2.47;;;1.50;;
28613;SDS011;15806;53.548;9.964;2023-07-31T05:13:11;5.07;;;1.53;;
28613;SDS011;15806;53.548;9.964;2023-07-31T05:14:52;4.83;;;2.07;;
28613;SDS011;15806;53.548;9.964;2023-07-31T05:16:32;3.83;;;2.33;;
28613;SDS011;15806;53.548;9.964;2023-07-31T05:18:13;4.27;;;2.30;;
28613;SDS011;15806;53.548;9.964;2023-07-31T05:19:53;3.03;;;1.87;;
28613;SDS011;15806;53.548;9.964;2023-07-31T05:21:34;5.63;;;2.30;;
28613;SDS011;15806;53.548;9.964;2023-07-31T05:23:14;4.43;;;2.20;;
28613;SDS011;15806;53.548;9.964;2023-07-31T05:24:55;6.23;;;2.30;;
28613;SDS011;15806;53.548;9.964;2023-07-31T05:26:35;8.57;;;2.20;;
28613;SDS011;15806;53.548;9.964;2023-07-31T05:28:16;3.00;;;1.57;;
28613;SDS011;15806;53.548;9.964;2023-07-31T05:29:56;4.23;;;2.27;;
28613;SDS011;15806;53.548;9.964;2023-07-31T05:31:37;3.87;;;2.13;;
28613;SDS011;15806;53.548;9.964;2023-07-31T05:33:18;3.67;;;2.20;;
28613;SDS011;15806;53.548;9.964;2023-07-31T05:34:58;6.00;;;1.97;;
28613;SDS011;15806;53.548;9.964;2023-07-31T05:36:39;2.97;;;2.13;;
28613;SDS011;15806;53.548;9.964;2023-07-31T05:38:19;4.70;;;2.23;;
28613;SDS011;15806;53.548;9.964;2023-07-31T05:40:00;4.33;;;1.90;;
28613;SDS011;15806;53.548;9.964;2023-07-31T05:41:40;2.93;;;1.63;;
28613;SDS011;15806;53.548;9.964;2023-07-31T05:43:21;5.90;;;2.33;;
28613;SDS011;15806;53.548;9.964;2023-07-31T05:45:02;4.17;;;1.93;;
28613;SDS011;15806;53.548;9.964;2023-07-31T05:46:42;2.60;;;1.70;;
28613;SDS011;15806;53.548;9.964;2023-07-31T05:48:23;3.40;;;2.00;;
28613;SDS011;15806;53.548;9.964;2023-07-31T05:50:03;3.03;;;2.13;;
28613;SDS011;15806;53.548;9.964;2023-07-31T05:51:44;3.40;;;2.00;;
28613;SDS011;15806;53.548;9.964;2023-07-31T05:53:25;3.47;;;1.70;;
28613;SDS011;15806;53.548;9.964;2023-07-31T05:55:05;4.07;;;1.90;;
28613;SDS011;15806;53.548;9.964;2023-07-31T05:56:46;4.03;;;2.57;;
28613;SDS011;15806;53.548;9.964;2023-07-31T05:58:26;5.67;;;2.20;;
28613;SDS011;15806;53.548;9.964;2023-07-31T06:00:07;3.80;;;2.20;;
28613;SDS011;15806;53.548;9.964;2023-07-31T06:01:48;4.72;;;1.83;;
28613;SDS011;15806;53.548;9.964;2023-07-31T06:03:29;4.53;;;2.13;;
28613;SDS011;15806;53.548;9.964;2023-07-31T06:05:09;3.80;;;2.13;;
28613;SDS011;15806;53.548;9.964;2023-07-31T06:06:50;4.23;;;1.93;;
28613;SDS011;15806;53.548;9.964;2023-07-31T06:08:30;3.93;;;1.73;;
28613;SDS011;15806;53.548;9.964;2023-07-31T06:10:11;2.43;;;1.50;;
28613;SDS011;15806;53.548;9.964;2023-07-31T06:11:51;4.10;;;2.07;;
28613;SDS011;15806;53.548;9.964;2023-07-31T06:13:32;4.37;;;1.90;;
28613;SDS011;15806;53.548;9.964;2023-07-31T06:15:12;3.73;;;2.00;;
28613;SDS011;15806;53.548;9.964;2023-07-31T06:16:53;2.00;;;1.43;;
28613;SDS011;15806;53.548;9.964;2023-07-31T06:18:33;5.60;;;2.00;;
28613;SDS011;15806;53.548;9.964;2023-07-31T06:20:14;3.83;;;2.23;;
28613;SDS011;15806;53.548;9.964;2023-07-31T06:21:54;4.17;;;1.90;;
28613;SDS011;15806;53.548;9.964;2023-07-31T06:23:35;1.67;;;1.20;;
28613;SDS011;15806;53.548;9.964;2023-07-31T06:25:15;4.33;;;1.60;;
28613;SDS011;15806;53.548;9.964;2023-07-31T06:26:56;2.30;;;1.60;;
28613;SDS011;15806;53.548;9.964;2023-07-31T06:28:36;2.23;;;1.50;;
28613;SDS011;15806;53.548;9.964;2023-07-31T06:30:17;2.70;;;1.50;;
28613;SDS011;15806;53.548;9.964;2023-07-31T06:31:57;3.70;;;1.90;;
28613;SDS011;15806;53.548;9.964;2023-07-31T06:33:38;3.47;;;1.77;;
28613;SDS011;15806;53.548;9.964;2023-07-31T06:35:19;2.40;;;1.67;;
28613;SDS011;15806;53.548;9.964;2023-07-31T06:36:59;1.87;;;1.40;;
28613;SDS011;15806;53.548;9.964;2023-07-31T06:38:40;3.07;;;1.70;;
28613;SDS011;15806;53.548;9.964;2023-07-31T06:40:21;2.33;;;1.83;;
28613;SDS011;15806;53.548;9.964;2023-07-31T06:42:02;3.08;;;1.88;;
28613;SDS011;15806;53.548;9.964;2023-07-31T06:43:43;3.25;;;2.20;;
28613;SDS011;15806;53.548;9.964;2023-07-31T06:45:23;2.80;;;2.13;;
28613;SDS011;15806;53.548;9.964;2023-07-31T06:47:04;2.47;;;1.80;;
28613;SDS011;15806;53.548;9.964;2023-07-31T06:48:45;4.57;;;1.97;;
28613;SDS011;15806;53.548;9.964;2023-07-31T06:50:25;2.47;;;2.00;;
28613;SDS011;15806;53.548;9.964;2023-07-31T06:52:06;2.37;;;1.60;;
28613;SDS011;15806;53.548;9.964;2023-07-31T06:53:47;2.57;;;1.20;;
28613;SDS011;15806;53.548;9.964;2023-07-31T06:55:27;4.03;;;2.23;;
28613;SDS011;15806;53.548;9.964;2023-07-31T06:57:08;3.30;;;2.20;;
28613;SDS011;15806;53.548;9.964;2023-07-31T06:58:48;4.13;;;2.20;;
28613;SDS011;15806;53.548;9.964;2023-07-31T07:00:29;5.07;;;2.37;;
28613;SDS011;15806;53.548;9.964;2023-07-31T07:02:09;6.13;;;2.40;;
28613;SDS011;15806;53.548;9.964;2023-07-31T07:03:50;3.33;;;1.93;;
28613;SDS011;15806;53.548;9.964;2023-07-31T07:05:30;5.93;;;2.20;;
28613;SDS011;15806;53.548;9.964;2023-07-31T07:07:11;3.83;;;2.13;;
28613;SDS011;15806;53.548;9.964;2023-07-31T07:08:51;2.77;;;2.23;;
28613;SDS011;15806;53.548;9.964;2023-07-31T07:10:32;3.40;;;2.10;;
28613;SDS011;15806;53.548;9.964;2023-07-31T07:12:12;4.27;;;2.17;;
28613;SDS011;15806;53.548;9.964;2023-07-31T07:13:53;3.83;;;2.43;;
28613;SDS011;15806;53.548;9.964;2023-07-31T07:15:33;3.47;;;2.33;;
28613;SDS011;15806;53.548;9.964;2023-07-31T07:17:13;3.10;;;1.80;;
28613;SDS011;15806;53.548;9.964;2023-07-31T07:18:54;5.40;;;2.80;;
28613;SDS011;15806;53.548;9.964;2023-07-31T07:20:34;3.60;;;2.40;;
28613;SDS011;15806;53.548;9.964;2023-07-31T07:22:15;3.73;;;2.03;;
28613;SDS011;15806;53.548;9.964;2023-07-31T07:23:55;3.43;;;1.60;;
28613;SDS011;15806;53.548;9.964;2023-07-31T07:25:37;2.47;;;1.83;;
28613;SDS011;15806;53.548;9.964;2023-07-31T07:28:58;2.50;;;1.70;;
28613;SDS011;15806;53.548;9.964;2023-07-31T07:30:38;1.97;;;1.67;;
28613;SDS011;15806;53.548;9.964;2023-07-31T07:32:20;3.10;;;1.20;;
28613;SDS011;15806;53.548;9.964;2023-07-31T07:34:01;3.50;;;1.90;;
28613;SDS011;15806;53.548;9.964;2023-07-31T07:35:41;2.63;;;1.50;;
28613;SDS011;15806;53.548;9.964;2023-07-31T07:37:22;2.30;;;1.40;;
28613;SDS011;15806;53.548;9.964;2023-07-31T07:39:02;2.43;;;1.50;;
28613;SDS011;15806;53.548;9.964;2023-07-31T07:40:43;2.90;;;1.70;;
28613;SDS011;15806;53.548;9.964;2023-07-31T07:42:23;3.37;;;1.90;;
28613;SDS011;15806;53.548;9.964;2023-07-31T07:44:04;3.90;;;1.80;;
28613;SDS011;15806;53.548;9.964;2023-07-31T07:45:44;3.37;;;1.73;;
28613;SDS011;15806;53.548;9.964;2023-07-31T07:47:25;7.37;;;1.47;;
28613;SDS011;15806;53.548;9.964;2023-07-31T07:49:05;3.07;;;1.57;;
28613;SDS011;15806;53.548;9.964;2023-07-31T07:50:46;6.43;;;1.77;;
28613;SDS011;15806;53.548;9.964;2023-07-31T07:52:27;1.87;;;1.40;;
28613;SDS011;15806;53.548;9.964;2023-07-31T07:54:08;2.75;;;1.65;;
28613;SDS011;15806;53.548;9.964;2023-07-31T07:55:48;3.23;;;1.83;;
28613;SDS011;15806;53.548;9.964;2023-07-31T07:57:29;3.97;;;2.13;;
28613;SDS011;15806;53.548;9.964;2023-07-31T07:59:09;2.17;;;1.53;;
28613;SDS011;15806;53.548;9.964;2023-07-31T08:00:50;1.93;;;1.30;;
28613;SDS011;15806;53.548;9.964;2023-07-31T08:02:31;2.67;;;1.88;;
28613;SDS011;15806;53.548;9.964;2023-07-31T08:04:11;2.70;;;1.70;;
28613;SDS011;15806;53.548;9.964;2023-07-31T08:05:52;2.43;;;1.37;;
28613;SDS011;15806;53.548;9.964;2023-07-31T08:07:32;1.67;;;1.20;;
28613;SDS011;15806;53.548;9.964;2023-07-31T08:09:13;2.00;;;1.40;;
28613;SDS011;15806;53.548;9.964;2023-07-31T08:10:53;2.03;;;1.60;;
28613;SDS011;15806;53.548;9.964;2023-07-31T08:12:34;2.30;;;1.33;;
28613;SDS011;15806;53.548;9.964;2023-07-31T08:14:14;4.07;;;1.77;;
28613;SDS011;15806;53.548;9.964;2023-07-31T08:15:55;2.83;;;1.50;;
28613;SDS011;15806;53.548;9.964;2023-07-31T08:17:35;2.63;;;1.43;;
28613;SDS011;15806;53.548;9.964;2023-07-31T08:19:16;2.00;;;1.50;;
28613;SDS011;15806;53.548;9.964;2023-07-31T08:20:56;3.07;;;1.70;;
28613;SDS011;15806;53.548;9.964;2023-07-31T08:22:37;2.30;;;1.87;;
28613;SDS011;15806;53.548;9.964;2023-07-31T08:24:17;3.47;;;1.60;;
28613;SDS011;15806;53.548;9.964;2023-07-31T08:25:58;1.77;;;1.20;;
28613;SDS011;15806;53.548;9.964;2023-07-31T08:27:38;4.83;;;1.57;;
28613;SDS011;15806;53.548;9.964;2023-07-31T08:29:22;3.67;;;1.50;;
28613;SDS011;15806;53.548;9.964;2023-07-31T08:31:02;2.27;;;1.53;;
28613;SDS011;15806;53.548;9.964;2023-07-31T08:32:43;4.07;;;1.50;;
28613;SDS011;15806;53.548;9.964;2023-07-31T08:34:23;2.17;;;1.40;;
28613;SDS011;15806;53.548;9.964;2023-07-31T08:36:04;2.40;;;1.90;;
28613;SDS011;15806;53.548;9.964;2023-07-31T08:37:45;3.28;;;1.80;;
28613;SDS011;15806;53.548;9.964;2023-07-31T08:39:26;2.23;;;1.57;;
28613;SDS011;15806;53.548;9.964;2023-07-31T08:41:06;3.43;;;1.40;;
28613;SDS011;15806;53.548;9.964;2023-07-31T08:42:48;1.10;;;0.83;;
28613;SDS011;15806;53.548;9.964;2023-07-31T08:44:29;1.95;;;1.20;;
28613;SDS011;15806;53.548;9.964;2023-07-31T08:46:11;1.45;;;1.02;;
28613;SDS011;15806;53.548;9.964;2023-07-31T08:47:52;1.83;;;1.10;;
28613;SDS011;15806;53.548;9.964;2023-07-31T08:49:33;1.30;;;1.00;;
28613;SDS011;15806;53.548;9.964;2023-07-31T08:51:14;3.20;;;1.02;;
28613;SDS011;15806;53.548;9.964;2023-07-31T08:52:55;1.70;;;0.93;;
28613;SDS011;15806;53.548;9.964;2023-07-31T08:54:35;2.03;;;1.60;;
28613;SDS011;15806;53.548;9.964;2023-07-31T08:56:16;1.37;;;0.90;;
28613;SDS011;15806;53.548;9.964;2023-07-31T08:59:38;2.70;;;1.23;;
28613;SDS011;15806;53.548;9.964;2023-07-31T09:01:20;2.42;;;1.10;;
28613;SDS011;15806;53.548;9.964;2023-07-31T09:03:02;1.38;;;1.00;;
28613;SDS011;15806;53.548;9.964;2023-07-31T09:04:47;2.05;;;1.40;;
28613;SDS011;15806;53.548;9.964;2023-07-31T09:06:28;1.70;;;1.20;;
28613;SDS011;15806;53.548;9.964;2023-07-31T09:09:51;2.85;;;1.20;;
28613;SDS011;15806;53.548;9.964;2023-07-31T09:11:35;2.00;;;1.13;;
28613;SDS011;15806;53.548;9.964;2023-07-31T09:13:16;2.23;;;0.90;;
28613;SDS011;15806;53.548;9.964;2023-07-31T09:14:59;1.23;;;0.67;;
28613;SDS011;15806;53.548;9.964;2023-07-31T09:16:59;4.32;;;1.08;;
28613;SDS011;15806;53.548;9.964;2023-07-31T09:18:54;1.23;;;0.77;;
28613;SDS011;15806;53.548;9.964;2023-07-31T09:20:36;1.45;;;0.95;;
28613;SDS011;15806;53.548;9.964;2023-07-31T09:22:17;2.25;;;1.13;;
28613;SDS011;15806;53.548;9.964;2023-07-31T09:24:11;3.95;;;1.15;;
28613;SDS011;15806;53.548;9.964;2023-07-31T09:26:11;3.67;;;1.10;;
28613;SDS011;15806;53.548;9.964;2023-07-31T09:28:09;1.73;;;0.85;;
28613;SDS011;15806;53.548;9.964;2023-07-31T09:29:59;2.85;;;1.05;;
28613;SDS011;15806;53.548;9.964;2023-07-31T09:31:41;4.20;;;1.10;;
28613;SDS011;15806;53.548;9.964;2023-07-31T09:33:22;2.20;;;0.90;;
28613;SDS011;15806;53.548;9.964;2023-07-31T09:35:12;2.00;;;0.97;;
28613;SDS011;15806;53.548;9.964;2023-07-31T09:36:58;2.50;;;1.00;;
28613;SDS011;15806;53.548;9.964;2023-07-31T09:38:41;2.92;;;0.75;;
28613;SDS011;15806;53.548;9.964;2023-07-31T09:40:28;2.13;;;0.70;;
28613;SDS011;15806;53.548;9.964;2023-07-31T09:42:14;2.28;;;1.02;;
28613;SDS011;15806;53.548;9.964;2023-07-31T09:44:04;3.10;;;1.15;;
28613;SDS011;15806;53.548;9.964;2023-07-31T09:45:44;4.20;;;2.40;;
28613;SDS011;15806;53.548;9.964;2023-07-31T09:47:26;2.20;;;0.98;;
28613;SDS011;15806;53.548;9.964;2023-07-31T09:49:07;2.30;;;0.80;;
28613;SDS011;15806;53.548;9.964;2023-07-31T09:50:48;3.47;;;0.77;;
28613;SDS011;15806;53.548;9.964;2023-07-31T09:52:29;1.70;;;0.80;;
28613;SDS011;15806;53.548;9.964;2023-07-31T09:54:10;2.87;;;0.63;;
28613;SDS011;15806;53.548;9.964;2023-07-31T09:55:52;3.25;;;0.82;;
28613;SDS011;15806;53.548;9.964;2023-07-31T09:57:33;1.95;;;0.80;;
28613;SDS011;15806;53.548;9.964;2023-07-31T09:59:16;1.95;;;0.63;;
28613;SDS011;15806;53.548;9.964;2023-07-31T10:00:58;1.98;;;0.90;;
28613;SDS011;15806;53.548;9.964;2023-07-31T10:02:39;2.67;;;0.60;;
28613;SDS011;15806;53.548;9.964;2023-07-31T10:04:20;1.58;;;1.00;;
28613;SDS011;15806;53.548;9.964;2023-07-31T10:06:06;2.40;;;0.75;;
28613;SDS011;15806;53.548;9.964;2023-07-31T10:07:51;3.28;;;1.00;;
28613;SDS011;15806;53.548;9.964;2023-07-31T10:09:34;1.52;;;0.77;;
28613;SDS011;15806;53.548;9.964;2023-07-31T10:11:14;2.53;;;0.97;;
28613;SDS011;15806;53.548;9.964;2023-07-31T10:12:56;2.47;;;1.48;;
28613;SDS011;15806;53.548;9.964;2023-07-31T10:14:38;0.88;;;0.68;;
28613;SDS011;15806;53.548;9.964;2023-07-31T10:16:21;1.05;;;0.80;;
28613;SDS011;15806;53.548;9.964;2023-07-31T10:18:02;2.35;;;1.42;;
28613;SDS011;15806;53.548;9.964;2023-07-31T10:19:45;2.50;;;1.10;;
28613;SDS011;15806;53.548;9.964;2023-07-31T10:21:26;1.23;;;0.90;;
28613;SDS011;15806;53.548;9.964;2023-07-31T10:23:07;2.00;;;0.95;;